OMD190 KLAX-KGYR
Flight info
| Callsign | OMD190 |
|---|---|
| Flight time | 0h 54m |
| Altitude | 37000 |
| Route | DOTSS2 CNERY BLH BXK |
| Aircraft | A320/M-SDE3FGHIRWY/LB1 |
Departure
| Time | 2026-05-05 02:22 |
|---|---|
| Airport | Los Angeles International Airport (KLAX) |
Arrival
| Time | 2026-05-05 03:17 |
|---|---|
| Airport | Phoenix Goodyear Airport (KGYR) |
| Time | Latitude | Longitude | Altitude | Speed | Heading |
|---|---|---|---|---|---|
| 2026-05-05 02:00 | 33.94022 | -118.40368 | 96 ft | 0 kts | 264° |
| 2026-05-05 02:11 | 33.94022 | -118.40367 | 96 ft | 1 kts | 264° |
| 2026-05-05 02:11 | 33.94023 | -118.40352 | 97 ft | 2 kts | 264° |
| 2026-05-05 02:12 | 33.94023 | -118.40334 | 96 ft | 2 kts | 262° |
| 2026-05-05 02:12 | 33.94042 | -118.40315 | 94 ft | 0 kts | 174° |
| 2026-05-05 02:17 | 33.94023 | -118.40313 | 97 ft | 7 kts | 172° |
| 2026-05-05 02:17 | 33.93950 | -118.40299 | 98 ft | 12 kts | 172° |
| 2026-05-05 02:17 | 33.93868 | -118.40285 | 102 ft | 11 kts | 165° |
| 2026-05-05 02:18 | 33.93854 | -118.40222 | 105 ft | 9 kts | 80° |
| 2026-05-05 02:18 | 33.93864 | -118.40129 | 105 ft | 14 kts | 84° |
| 2026-05-05 02:18 | 33.93878 | -118.39993 | 105 ft | 18 kts | 83° |
| 2026-05-05 02:18 | 33.93895 | -118.39836 | 104 ft | 21 kts | 84° |
| 2026-05-05 02:19 | 33.93913 | -118.39653 | 103 ft | 23 kts | 83° |
| 2026-05-05 02:19 | 33.93936 | -118.39446 | 102 ft | 27 kts | 82° |
| 2026-05-05 02:19 | 33.93960 | -118.39212 | 101 ft | 30 kts | 83° |
| 2026-05-05 02:19 | 33.93985 | -118.38945 | 102 ft | 34 kts | 84° |
| 2026-05-05 02:20 | 33.94010 | -118.38670 | 103 ft | 32 kts | 84° |
| 2026-05-05 02:20 | 33.94043 | -118.38384 | 103 ft | 37 kts | 82° |
| 2026-05-05 02:20 | 33.94070 | -118.38123 | 103 ft | 21 kts | 82° |
| 2026-05-05 02:20 | 33.94060 | -118.38007 | 104 ft | 11 kts | 142° |
| 2026-05-05 02:21 | 33.93994 | -118.38008 | 110 ft | 9 kts | 215° |
| 2026-05-05 02:21 | 33.93980 | -118.38069 | 110 ft | 10 kts | 264° |
| 2026-05-05 02:21 | 33.93960 | -118.38271 | 110 ft | 65 kts | 262° |
| 2026-05-05 02:21 | 33.93858 | -118.39255 | 123 ft | 164 kts | 263° |
| 2026-05-05 02:22 | 33.93691 | -118.40894 | 342 ft | 223 kts | 263° |
| 2026-05-05 02:22 | 33.93534 | -118.42634 | 2411 ft | 194 kts | 264° |
| 2026-05-05 02:22 | 33.93429 | -118.44152 | 4361 ft | 173 kts | 265° |
| 2026-05-05 02:22 | 33.93334 | -118.45594 | 5143 ft | 181 kts | 264° |
| 2026-05-05 02:23 | 33.93003 | -118.47159 | 5747 ft | 204 kts | 245° |
| 2026-05-05 02:23 | 33.92145 | -118.48616 | 6433 ft | 229 kts | 230° |
| 2026-05-05 02:23 | 33.90971 | -118.50145 | 6453 ft | 259 kts | 228° |
| 2026-05-05 02:23 | 33.89691 | -118.51750 | 6852 ft | 274 kts | 227° |
| 2026-05-05 02:24 | 33.88367 | -118.53382 | 8244 ft | 269 kts | 225° |
| 2026-05-05 02:24 | 33.86859 | -118.54730 | 9577 ft | 272 kts | 209° |
| 2026-05-05 02:24 | 33.85054 | -118.55535 | 10551 ft | 289 kts | 194° |
| 2026-05-05 02:24 | 33.82982 | -118.55648 | 11297 ft | 308 kts | 176° |
| 2026-05-05 02:25 | 33.80848 | -118.55110 | 12253 ft | 317 kts | 170° |
| 2026-05-05 02:25 | 33.79413 | -118.54713 | 12909 ft | 321 kts | 171° |
| 2026-05-05 02:25 | 33.76456 | -118.53904 | 14202 ft | 329 kts | 171° |
| 2026-05-05 02:25 | 33.74973 | -118.53502 | 14800 ft | 332 kts | 171° |
| 2026-05-05 02:26 | 33.72746 | -118.52665 | 15716 ft | 340 kts | 160° |
| 2026-05-05 02:26 | 33.70712 | -118.51134 | 16619 ft | 351 kts | 144° |
| 2026-05-05 02:26 | 33.69056 | -118.48929 | 17520 ft | 362 kts | 128° |
| 2026-05-05 02:26 | 33.67946 | -118.46169 | 18403 ft | 374 kts | 114° |
| 2026-05-05 02:27 | 33.67086 | -118.43200 | 19190 ft | 378 kts | 114° |
| 2026-05-05 02:27 | 33.66211 | -118.40201 | 19955 ft | 383 kts | 114° |
| 2026-05-05 02:27 | 33.65315 | -118.37164 | 20700 ft | 389 kts | 114° |
| 2026-05-05 02:27 | 33.64629 | -118.33980 | 21385 ft | 401 kts | 104° |
| 2026-05-05 02:28 | 33.64439 | -118.30593 | 22049 ft | 412 kts | 94° |
| 2026-05-05 02:28 | 33.64450 | -118.27136 | 22714 ft | 417 kts | 94° |
| 2026-05-05 02:28 | 33.64460 | -118.23626 | 23381 ft | 423 kts | 94° |
| 2026-05-05 02:28 | 33.64465 | -118.20067 | 23965 ft | 429 kts | 95° |
| 2026-05-05 02:29 | 33.64465 | -118.16458 | 24511 ft | 435 kts | 95° |
| 2026-05-05 02:29 | 33.64462 | -118.12811 | 25035 ft | 440 kts | 96° |
| 2026-05-05 02:29 | 33.64460 | -118.09108 | 25572 ft | 446 kts | 96° |
| 2026-05-05 02:29 | 33.64457 | -118.05356 | 26103 ft | 452 kts | 96° |
| 2026-05-05 02:30 | 33.64454 | -118.01566 | 26662 ft | 457 kts | 97° |
| 2026-05-05 02:30 | 33.64447 | -117.97773 | 27179 ft | 462 kts | 97° |
| 2026-05-05 02:30 | 33.64440 | -117.93891 | 27712 ft | 468 kts | 98° |
| 2026-05-05 02:30 | 33.64430 | -117.89969 | 28238 ft | 473 kts | 98° |
| 2026-05-05 02:31 | 33.64417 | -117.85996 | 28761 ft | 478 kts | 98° |
| 2026-05-05 02:31 | 33.64376 | -117.81992 | 29268 ft | 479 kts | 102° |
| 2026-05-05 02:31 | 33.63965 | -117.78049 | 29764 ft | 472 kts | 112° |
| 2026-05-05 02:31 | 33.63122 | -117.74265 | 30252 ft | 468 kts | 118° |
| 2026-05-05 02:32 | 33.62185 | -117.70498 | 30707 ft | 473 kts | 118° |
| 2026-05-05 02:32 | 33.61243 | -117.66699 | 31166 ft | 477 kts | 118° |
| 2026-05-05 02:32 | 33.60297 | -117.62865 | 31732 ft | 479 kts | 118° |
| 2026-05-05 02:32 | 33.59360 | -117.59038 | 32406 ft | 478 kts | 118° |
| 2026-05-05 02:33 | 33.58433 | -117.55262 | 33074 ft | 478 kts | 118° |
| 2026-05-05 02:33 | 33.57494 | -117.51439 | 33741 ft | 478 kts | 118° |
| 2026-05-05 02:33 | 33.56546 | -117.47611 | 34345 ft | 477 kts | 118° |
| 2026-05-05 02:33 | 33.55596 | -117.43789 | 34863 ft | 477 kts | 118° |
| 2026-05-05 02:34 | 33.54647 | -117.39982 | 35406 ft | 476 kts | 117° |
| 2026-05-05 02:34 | 33.53695 | -117.36175 | 35920 ft | 476 kts | 117° |
| 2026-05-05 02:34 | 33.52745 | -117.32383 | 36422 ft | 475 kts | 117° |
| 2026-05-05 02:34 | 33.51794 | -117.28588 | 36859 ft | 476 kts | 117° |
| 2026-05-05 02:35 | 33.50891 | -117.24766 | 37014 ft | 480 kts | 112° |
| 2026-05-05 02:35 | 33.50443 | -117.20777 | 37032 ft | 487 kts | 100° |
| 2026-05-05 02:35 | 33.50388 | -117.16707 | 37024 ft | 487 kts | 99° |
| 2026-05-05 02:36 | 33.50300 | -117.08611 | 37025 ft | 485 kts | 99° |
| 2026-05-05 02:36 | 33.50190 | -117.00531 | 37018 ft | 484 kts | 99° |
| 2026-05-05 02:37 | 33.50067 | -116.92450 | 37017 ft | 484 kts | 99° |
| 2026-05-05 02:37 | 33.49940 | -116.84379 | 37002 ft | 484 kts | 100° |
| 2026-05-05 02:38 | 33.49811 | -116.76357 | 36985 ft | 484 kts | 100° |
| 2026-05-05 02:38 | 33.49679 | -116.68289 | 36975 ft | 484 kts | 100° |
| 2026-05-05 02:39 | 33.49546 | -116.60216 | 36967 ft | 484 kts | 101° |
| 2026-05-05 02:39 | 33.49402 | -116.52147 | 36954 ft | 484 kts | 101° |
| 2026-05-05 02:40 | 33.49248 | -116.44054 | 36932 ft | 485 kts | 101° |
| 2026-05-05 02:40 | 33.49105 | -116.35943 | 36910 ft | 487 kts | 101° |
| 2026-05-05 02:41 | 33.48993 | -116.27814 | 36886 ft | 488 kts | 101° |
| 2026-05-05 02:41 | 33.48877 | -116.19665 | 36878 ft | 489 kts | 101° |
| 2026-05-05 02:42 | 33.48746 | -116.11559 | 36879 ft | 490 kts | 101° |
| 2026-05-05 02:42 | 33.48969 | -116.03333 | 36881 ft | 505 kts | 88° |
| 2026-05-05 02:42 | 33.49832 | -115.99203 | 36879 ft | 515 kts | 76° |
| 2026-05-05 02:43 | 33.51033 | -115.95159 | 36872 ft | 516 kts | 76° |
| 2026-05-05 02:43 | 33.53421 | -115.87048 | 36871 ft | 516 kts | 76° |
| 2026-05-05 02:44 | 33.55778 | -115.78909 | 36875 ft | 517 kts | 76° |
| 2026-05-05 02:44 | 33.58137 | -115.70764 | 36876 ft | 517 kts | 76° |
| 2026-05-05 02:45 | 33.60507 | -115.62613 | 36887 ft | 517 kts | 77° |
| 2026-05-05 02:45 | 33.61418 | -115.58482 | 36882 ft | 506 kts | 89° |
| 2026-05-05 02:45 | 33.61686 | -115.54339 | 36880 ft | 491 kts | 102° |
| 2026-05-05 02:46 | 33.61510 | -115.46161 | 36874 ft | 490 kts | 102° |
| 2026-05-05 02:46 | 33.61299 | -115.38041 | 36872 ft | 489 kts | 103° |
| 2026-05-05 02:47 | 33.61087 | -115.29873 | 36879 ft | 489 kts | 103° |
| 2026-05-05 02:47 | 33.60875 | -115.21706 | 36889 ft | 490 kts | 103° |
| 2026-05-05 02:48 | 33.60658 | -115.13527 | 36892 ft | 490 kts | 103° |
| 2026-05-05 02:48 | 33.60441 | -115.05346 | 36903 ft | 491 kts | 104° |
| 2026-05-05 02:49 | 33.60212 | -114.97151 | 36898 ft | 492 kts | 104° |
| 2026-05-05 02:49 | 33.59972 | -114.88944 | 36894 ft | 492 kts | 104° |
| 2026-05-05 02:50 | 33.59750 | -114.80705 | 36881 ft | 494 kts | 104° |
| 2026-05-05 02:50 | 33.59442 | -114.72491 | 36888 ft | 491 kts | 107° |
| 2026-05-05 02:51 | 33.58910 | -114.64335 | 36822 ft | 494 kts | 108° |
| 2026-05-05 02:51 | 33.58575 | -114.60161 | 36561 ft | 509 kts | 108° |
| 2026-05-05 02:51 | 33.58235 | -114.55911 | 36307 ft | 514 kts | 108° |
| 2026-05-05 02:51 | 33.57919 | -114.51627 | 35704 ft | 518 kts | 107° |
| 2026-05-05 02:52 | 33.57616 | -114.47280 | 34898 ft | 524 kts | 107° |
| 2026-05-05 02:52 | 33.57344 | -114.42968 | 34629 ft | 514 kts | 107° |
| 2026-05-05 02:52 | 33.57086 | -114.38759 | 34050 ft | 513 kts | 107° |
| 2026-05-05 02:52 | 33.56810 | -114.34490 | 33288 ft | 514 kts | 107° |
| 2026-05-05 02:53 | 33.56518 | -114.30212 | 32514 ft | 513 kts | 107° |
| 2026-05-05 02:53 | 33.56217 | -114.25945 | 31759 ft | 513 kts | 107° |
| 2026-05-05 02:53 | 33.55913 | -114.21678 | 31030 ft | 513 kts | 107° |
| 2026-05-05 02:53 | 33.55613 | -114.17420 | 30227 ft | 514 kts | 106° |
| 2026-05-05 02:54 | 33.55307 | -114.13136 | 29168 ft | 517 kts | 106° |
| 2026-05-05 02:54 | 33.54996 | -114.08833 | 28095 ft | 518 kts | 104° |
| 2026-05-05 02:54 | 33.54687 | -114.04530 | 27058 ft | 518 kts | 103° |
| 2026-05-05 02:54 | 33.54387 | -114.00264 | 26582 ft | 506 kts | 103° |
| 2026-05-05 02:55 | 33.54108 | -113.96144 | 26464 ft | 486 kts | 103° |
| 2026-05-05 02:55 | 33.53845 | -113.92208 | 26041 ft | 463 kts | 103° |
| 2026-05-05 02:55 | 33.53581 | -113.88415 | 25261 ft | 451 kts | 103° |
| 2026-05-05 02:55 | 33.53310 | -113.84712 | 24487 ft | 441 kts | 103° |
| 2026-05-05 02:56 | 33.53034 | -113.81086 | 23711 ft | 433 kts | 102° |
| 2026-05-05 02:56 | 33.52756 | -113.77521 | 22838 ft | 425 kts | 102° |
| 2026-05-05 02:56 | 33.52492 | -113.74061 | 22368 ft | 406 kts | 102° |
| 2026-05-05 02:56 | 33.52246 | -113.70741 | 21906 ft | 397 kts | 102° |
| 2026-05-05 02:57 | 33.51995 | -113.67450 | 21386 ft | 396 kts | 101° |
| 2026-05-05 02:57 | 33.51746 | -113.64169 | 20867 ft | 395 kts | 101° |
| 2026-05-05 02:57 | 33.51496 | -113.60894 | 20348 ft | 394 kts | 100° |
| 2026-05-05 02:57 | 33.51247 | -113.57628 | 19821 ft | 393 kts | 99° |
| 2026-05-05 02:58 | 33.50998 | -113.54377 | 19302 ft | 391 kts | 99° |
| 2026-05-05 02:58 | 33.50750 | -113.51139 | 18780 ft | 390 kts | 98° |
| 2026-05-05 02:58 | 33.50503 | -113.47908 | 18260 ft | 388 kts | 97° |
| 2026-05-05 02:58 | 33.50263 | -113.44751 | 17742 ft | 383 kts | 98° |
| 2026-05-05 02:59 | 33.50024 | -113.41592 | 17217 ft | 378 kts | 98° |
| 2026-05-05 02:59 | 33.49787 | -113.38470 | 16708 ft | 374 kts | 98° |
| 2026-05-05 02:59 | 33.49549 | -113.35375 | 16195 ft | 371 kts | 98° |
| 2026-05-05 02:59 | 33.49312 | -113.32311 | 15685 ft | 368 kts | 98° |
| 2026-05-05 03:00 | 33.49077 | -113.29274 | 15187 ft | 365 kts | 98° |
| 2026-05-05 03:00 | 33.48842 | -113.26247 | 14689 ft | 362 kts | 99° |
| 2026-05-05 03:00 | 33.48608 | -113.23252 | 14194 ft | 360 kts | 99° |
| 2026-05-05 03:00 | 33.48322 | -113.20290 | 13829 ft | 351 kts | 106° |
| 2026-05-05 03:01 | 33.47570 | -113.17606 | 13743 ft | 332 kts | 116° |
| 2026-05-05 03:01 | 33.46745 | -113.15082 | 13668 ft | 318 kts | 117° |
| 2026-05-05 03:01 | 33.45934 | -113.12614 | 13243 ft | 321 kts | 117° |
| 2026-05-05 03:01 | 33.45109 | -113.10124 | 12725 ft | 323 kts | 116° |
| 2026-05-05 03:02 | 33.44277 | -113.07615 | 12214 ft | 325 kts | 116° |
| 2026-05-05 03:02 | 33.43440 | -113.05094 | 11718 ft | 326 kts | 116° |
| 2026-05-05 03:02 | 33.42599 | -113.02569 | 11230 ft | 326 kts | 116° |
| 2026-05-05 03:02 | 33.42044 | -113.00902 | 10914 ft | 326 kts | 116° |
| 2026-05-05 03:03 | 33.41204 | -112.98381 | 10437 ft | 326 kts | 116° |
| 2026-05-05 03:03 | 33.40362 | -112.95856 | 9970 ft | 326 kts | 116° |
| 2026-05-05 03:03 | 33.39518 | -112.93329 | 9468 ft | 326 kts | 115° |
| 2026-05-05 03:03 | 33.38680 | -112.90808 | 8949 ft | 325 kts | 115° |
| 2026-05-05 03:04 | 33.37851 | -112.88303 | 8568 ft | 320 kts | 115° |
| 2026-05-05 03:04 | 33.37047 | -112.85873 | 8438 ft | 307 kts | 115° |
| 2026-05-05 03:04 | 33.36282 | -112.83572 | 8318 ft | 297 kts | 116° |
| 2026-05-05 03:04 | 33.35518 | -112.81290 | 8200 ft | 294 kts | 116° |
| 2026-05-05 03:05 | 33.34757 | -112.79025 | 8078 ft | 293 kts | 116° |
| 2026-05-05 03:05 | 33.33997 | -112.76763 | 7955 ft | 292 kts | 116° |
| 2026-05-05 03:05 | 33.33240 | -112.74513 | 7793 ft | 290 kts | 116° |
| 2026-05-05 03:05 | 33.32490 | -112.72280 | 7430 ft | 288 kts | 116° |
| 2026-05-05 03:06 | 33.31742 | -112.70054 | 7035 ft | 288 kts | 116° |
| 2026-05-05 03:06 | 33.30994 | -112.67831 | 6649 ft | 288 kts | 116° |
| 2026-05-05 03:06 | 33.30257 | -112.65638 | 6235 ft | 282 kts | 116° |
| 2026-05-05 03:06 | 33.29536 | -112.63494 | 5949 ft | 270 kts | 116° |
| 2026-05-05 03:07 | 33.28852 | -112.61457 | 5994 ft | 264 kts | 116° |
| 2026-05-05 03:07 | 33.28158 | -112.59400 | 6000 ft | 267 kts | 116° |
| 2026-05-05 03:07 | 33.27461 | -112.57340 | 6001 ft | 268 kts | 116° |
| 2026-05-05 03:07 | 33.26941 | -112.55192 | 5997 ft | 274 kts | 97° |
| 2026-05-05 03:08 | 33.27253 | -112.52937 | 5868 ft | 282 kts | 68° |
| 2026-05-05 03:08 | 33.28448 | -112.51102 | 5571 ft | 282 kts | 40° |
| 2026-05-05 03:08 | 33.29957 | -112.49624 | 5274 ft | 280 kts | 40° |
| 2026-05-05 03:08 | 33.31458 | -112.48163 | 5009 ft | 276 kts | 40° |
| 2026-05-05 03:09 | 33.32863 | -112.46632 | 4771 ft | 270 kts | 49° |
| 2026-05-05 03:09 | 33.33945 | -112.44872 | 4571 ft | 263 kts | 59° |
| 2026-05-05 03:09 | 33.34915 | -112.43071 | 4498 ft | 250 kts | 59° |
| 2026-05-05 03:09 | 33.35816 | -112.41379 | 4501 ft | 233 kts | 59° |
| 2026-05-05 03:10 | 33.36655 | -112.39801 | 4503 ft | 217 kts | 59° |
| 2026-05-05 03:10 | 33.37451 | -112.38308 | 4466 ft | 210 kts | 59° |
| 2026-05-05 03:10 | 33.38231 | -112.36833 | 4267 ft | 209 kts | 60° |
| 2026-05-05 03:10 | 33.39006 | -112.35371 | 4050 ft | 208 kts | 59° |
| 2026-05-05 03:11 | 33.39771 | -112.33905 | 3802 ft | 208 kts | 59° |
| 2026-05-05 03:11 | 33.40529 | -112.32433 | 3551 ft | 207 kts | 59° |
| 2026-05-05 03:11 | 33.41275 | -112.30959 | 3311 ft | 206 kts | 59° |
| 2026-05-05 03:11 | 33.42012 | -112.29487 | 3089 ft | 204 kts | 59° |
| 2026-05-05 03:12 | 33.42736 | -112.28065 | 3001 ft | 195 kts | 55° |
| 2026-05-05 03:12 | 33.43655 | -112.26912 | 3012 ft | 189 kts | 41° |
| 2026-05-05 03:12 | 33.44623 | -112.25900 | 2977 ft | 186 kts | 40° |
| 2026-05-05 03:12 | 33.45727 | -112.25138 | 2978 ft | 184 kts | 7° |
| 2026-05-05 03:13 | 33.46940 | -112.25363 | 2979 ft | 176 kts | 325° |
| 2026-05-05 03:13 | 33.47849 | -112.26257 | 2999 ft | 164 kts | 312° |
| 2026-05-05 03:13 | 33.48593 | -112.27249 | 2982 ft | 158 kts | 298° |
| 2026-05-05 03:13 | 33.48750 | -112.28489 | 2990 ft | 148 kts | 255° |
| 2026-05-05 03:14 | 33.48476 | -112.29654 | 2897 ft | 138 kts | 251° |
| 2026-05-05 03:14 | 33.48159 | -112.30696 | 2738 ft | 129 kts | 246° |
| 2026-05-05 03:14 | 33.47814 | -112.31660 | 2541 ft | 125 kts | 243° |
| 2026-05-05 03:14 | 33.47405 | -112.32558 | 2325 ft | 123 kts | 235° |
| 2026-05-05 03:15 | 33.46849 | -112.33327 | 2135 ft | 122 kts | 224° |
| 2026-05-05 03:15 | 33.46187 | -112.33961 | 1978 ft | 121 kts | 217° |
| 2026-05-05 03:15 | 33.45506 | -112.34585 | 1761 ft | 123 kts | 221° |
| 2026-05-05 03:15 | 33.44820 | -112.35229 | 1527 ft | 125 kts | 218° |
| 2026-05-05 03:16 | 33.44141 | -112.35859 | 1358 ft | 123 kts | 217° |
| 2026-05-05 03:16 | 33.43462 | -112.36481 | 1163 ft | 124 kts | 219° |
| 2026-05-05 03:16 | 33.42786 | -112.37110 | 998 ft | 123 kts | 220° |
| 2026-05-05 03:16 | 33.42181 | -112.37679 | 958 ft | 90 kts | 218° |
| 2026-05-05 03:17 | 33.41886 | -112.37947 | 953 ft | 8 kts | 207° |
| 2026-05-05 03:17 | 33.41831 | -112.37890 | 955 ft | 16 kts | 122° |
| 2026-05-05 03:17 | 33.41869 | -112.37796 | 954 ft | 16 kts | 37° |
| 2026-05-05 03:17 | 33.41975 | -112.37704 | 954 ft | 21 kts | 37° |
| 2026-05-05 03:18 | 33.42102 | -112.37586 | 957 ft | 24 kts | 38° |
| 2026-05-05 03:18 | 33.42241 | -112.37452 | 959 ft | 28 kts | 39° |
| 2026-05-05 03:18 | 33.42389 | -112.37314 | 964 ft | 25 kts | 37° |
| 2026-05-05 03:18 | 33.42516 | -112.37196 | 970 ft | 19 kts | 38° |
| 2026-05-05 03:19 | 33.42746 | -112.36981 | 966 ft | 7 kts | 41° |
| 2026-05-05 03:19 | 33.42736 | -112.36921 | 967 ft | 10 kts | 122° |
| 2026-05-05 03:19 | 33.42695 | -112.36845 | 965 ft | 5 kts | 102° |
| 2026-05-05 03:20 | 33.42708 | -112.36829 | 964 ft | 0 kts | 43° |